• Join FlightAware (Why Join?)
  • Login
  • US Flag GB Flag 
14:27 EDT


 

Airport Tracker/Info


-or-


 

Live Flight TrackerFlight Track Log ✈ AAY842 ✈ 24-Mar-2014 ✈ KPIE - KSYR

Flight Track Log - Related Links

Times and Time Zones

All times are in EDT time to prevent confusion due to time zone crossing. See the AAY842 flight status page for this flight to view local times or setup timezone preferences in your user account.

Time Position Orientation Groundspeed Altitude Reporting Facility
EDT Latitude Longitude Course Direction KTS MPH feet Rate Location/Type
15:37 27.9000 -82.6833 180° South 158 182 700  Level Tampa TRACON
15:38 27.8500 -82.6833 180° South 199 229 2,000 2,040 Climbing Tampa TRACON
15:40 27.8472 -82.7517 267° West 221 254 6,300 2,520 Climbing Jacksonville Center
15:41 27.9225 -82.7281 15° North 158 182 9,200 2,400 Climbing Jacksonville Center
15:42 28.0017 -82.6906 23° Northeast 229 264 11,100 2,220 Climbing Jacksonville Center
15:43 28.0892 -82.6525 21° North 290 334 13,700 2,040 Climbing Jacksonville Center
15:44 28.1914 -82.6053 22° Northeast 317 365 15,200 1,740 Climbing Jacksonville Center
15:45 28.2914 -82.5508 26° Northeast 363 418 17,200 2,100 Climbing Jacksonville Center
15:46 28.3936 -82.5575 357° North 377 434 19,400 1,860 Climbing Jacksonville Center
15:47 28.4961 -82.5925 343° North 369 425 21,000 1,800 Climbing Jacksonville Center
15:48 28.6003 -82.6253 345° North 374 430 23,000 1,620 Climbing Jacksonville Center
15:49 28.6944 -82.6369 354° North 379 436 24,300 1,380 Climbing Jacksonville Center
15:50 28.8153 -82.6294 North 393 452 25,800 1,320 Climbing Jacksonville Center
15:51 28.9344 -82.6269 North 413 475 27,000 1,200 Climbing Jacksonville Center
15:52 29.0575 -82.6169 North 430 495 28,200 1,020 Climbing Jacksonville Center
15:53 29.1828 -82.6144 North 442 509 29,100 1,020 Climbing Jacksonville Center
15:54 29.3122 -82.6067 North 454 522 30,300 1,140 Climbing Jacksonville Center
15:55 29.4414 -82.6017 North 459 528 31,400 1,320 Climbing Jacksonville Center
15:56 29.5836 -82.5942 North 459 528 33,000 1,320 Climbing Jacksonville Center
15:57 29.7086 -82.5889 North 459 528 34,100 960 Climbing Jacksonville Center
15:58 29.8339 -82.5814 North 454 522 35,000 420 Climbing Jacksonville Center
15:59 29.9531 -82.5761 North 444 511 35,000  Level Jacksonville Center
16:00 30.0761 -82.5733 North 439 505 35,000  Level Jacksonville Center
16:01 30.1992 -82.5681 North 439 505 35,000  Level Jacksonville Center
16:02 30.3244 -82.5628 North 439 505 35,000  Level Jacksonville Center
16:03 30.4456 -82.5553 North 439 505 35,000  Level Jacksonville Center
16:04 30.5750 -82.5283 10° North 444 511 35,000  Level Jacksonville Center
16:05 30.6981 -82.4769 20° North 455 524 35,000  Level Jacksonville Center
16:06 30.8231 -82.4331 17° North 455 524 35,000 -60 Level Jacksonville Center
16:07 30.9461 -82.3814 20° North 461 531 34,900  Descending Jacksonville Center
16:08 31.0711 -82.3297 19° North 461 531 35,000  Climbing Jacksonville Center
16:09 31.1797 -82.2881 18° North 461 531 35,000  Level Jacksonville Center
16:10 31.3025 -82.2408 18° North 461 531 35,000  Level Jacksonville Center
16:11 31.4275 -82.1914 19° North 461 531 35,000  Level Jacksonville Center
16:12 31.5506 -82.1442 18° North 461 531 35,000  Level Jacksonville Center
16:13 31.6733 -82.0894 21° North 466 536 35,000  Level Jacksonville Center
16:14 31.8086 -82.0344 19° North 466 536 35,000  Level Jacksonville Center
16:15 31.9317 -81.9869 18° North 466 536 35,000  Level Jacksonville Center
16:16 32.0439 -81.9392 20° North 461 531 35,000  Level Jacksonville Center
16:17 32.1792 -81.8714 23° Northeast 474 545 35,000  Level Jacksonville Center
16:18 32.3019 -81.8161 21° North 474 545 35,000  Level Jacksonville Center
16:19 32.4119 -81.7606 23° Northeast 474 545 35,000  Level Jacksonville Center
16:20 32.5514 -81.6947 22° Northeast 474 545 35,000  Level Jacksonville Center
16:21 32.6636 -81.6414 22° Northeast 474 545 35,100  Climbing Jacksonville Center
16:22 32.7986 -81.5753 22° Northeast 474 545 35,000 -60 Descending Jacksonville Center
16:23 32.9211 -81.5142 23° Northeast 474 545 35,000  Level Jacksonville Center
16:24 33.0436 -81.4553 22° Northeast 474 545 35,000 -60 Level Jacksonville Center
16:25 33.1658 -81.3961 22° Northeast 474 545 34,900  Descending Jacksonville Center
16:26 33.2883 -81.3369 22° Northeast 474 545 35,000  Climbing Jacksonville Center
16:27 33.4108 -81.2753 23° Northeast 469 540 35,000  Level Jacksonville Center
16:28 33.5331 -81.2181 21° North 469 540 35,000  Level Jacksonville Center
16:29 33.6556 -81.1558 23° Northeast 474 545 35,000  Level Jacksonville Center
16:30 33.7653 -81.1014 22° Northeast 474 545 35,000  Level Jacksonville Center
16:31 33.8833 -81.0414 23° Northeast 474 545 35,000  Level Jacksonville Center
16:32 34.0222 -80.9758 21° North 474 545 35,000  Level Jacksonville Center
16:33 34.1403 -80.9206 21° North 468 539 35,000  Level Jacksonville Center
16:34 34.2644 -80.8600 22° Northeast 468 539 35,000  Level Jacksonville Center
16:36 34.5200 -80.7361 22° Northeast 471 542 35,000  Level Atlanta Center
16:37 34.6436 -80.6783 21° North 463 533 35,000  Level Atlanta Center
16:38 34.7628 -80.6153 23° Northeast 469 540 35,000  Level Atlanta Center
16:39 34.9008 -80.5514 21° North 469 540 35,000  Level Atlanta Center
16:40 35.0222 -80.4906 22° Northeast 469 540 35,000  Level Atlanta Center
16:41 35.1414 -80.4294 23° Northeast 469 540 35,000  Level Atlanta Center
16:42 35.2628 -80.3683 22° Northeast 469 540 35,000  Level Atlanta Center
16:43 35.3883 -80.3067 22° Northeast 469 540 35,000  Level Atlanta Center
16:44 35.5094 -80.2450 23° Northeast 469 540 35,000  Level Atlanta Center
16:45 35.6264 -80.1861 22° Northeast 469 540 35,000  Level Atlanta Center
16:47 35.8636 -80.0722 21° North 480 552 35,000  Level Washington Center
16:48 35.9825 -80.0122 22° Northeast 474 545 35,000  Level Washington Center
16:49 36.1000 -79.9367 27° Northeast 474 545 35,100  Climbing Washington Center
16:50 36.2181 -79.8453 32° Northeast 479 551 35,000 -60 Descending Washington Center
16:51 36.3428 -79.7436 33° Northeast 484 557 35,000  Level Washington Center
16:52 36.4544 -79.6514 34° Northeast 489 563 35,000  Level Washington Center
16:53 36.5681 -79.5642 32° Northeast 489 563 35,000  Level Washington Center
16:54 36.6731 -79.4792 33° Northeast 489 563 35,000  Level Washington Center
16:55 36.7886 -79.3889 32° Northeast 489 563 35,000  Level Washington Center
16:56 36.9061 -79.2986 32° Northeast 489 563 35,000  Level Washington Center
16:57 37.0217 -79.2028 34° Northeast 494 568 35,000  Level Washington Center
16:58 37.1500 -79.1019 32° Northeast 489 563 35,000  Level Washington Center
16:59 37.2653 -79.0053 34° Northeast 489 563 35,000  Level Washington Center
17:00 37.3847 -78.9114 32° Northeast 489 563 35,000  Level Washington Center
17:01 37.4914 -78.8244 33° Northeast 494 568 35,000  Level Washington Center
17:02 37.6086 -78.7297 33° Northeast 494 568 35,000  Level Washington Center
17:03 37.7217 -78.6372 33° Northeast 494 568 35,000  Level Washington Center
17:04 37.8514 -78.5319 33° Northeast 494 568 35,000  Level Washington Center
17:05 37.9686 -78.4367 33° Northeast 494 568 35,000  Level Washington Center
17:06 38.0792 -78.3406 34° Northeast 494 568 35,000  Level Washington Center
17:07 38.1961 -78.2444 33° Northeast 494 568 35,000  Level Washington Center
17:08 38.3108 -78.1453 34° Northeast 500 575 35,000  Level Washington Center
17:09 38.4253 -78.0511 33° Northeast 495 570 35,000  Level Washington Center
17:10 38.5378 -77.9539 32° Northeast 495 570 35,000  Level Washington Center
17:11 38.5239 -77.9476 32° Northeast  Level FlightAware Approximate
17:11 38.6564 -77.8647 30° Northeast 495 570 35,000  Level Washington Center
17:13 38.8569 -77.7656 21° North 458 527 35,000  Level New York Center
17:14 38.9772 -77.7078 20° North 458 527 35,000  Level New York Center
17:15 39.0992 -77.6528 19° North 458 527 35,000  Level New York Center
17:16 39.2194 -77.5972 20° North 458 527 35,100  Climbing New York Center
17:17 39.3394 -77.5392 21° North 458 527 35,000 -60 Descending New York Center
17:18 39.4597 -77.4806 21° North 458 527 35,000  Level New York Center
17:19 39.5819 -77.4222 20° North 458 527 35,000  Level New York Center
17:20 39.7019 -77.3633 21° North 458 527 35,000  Level New York Center
17:21 39.8261 -77.3047 20° North 464 534 35,000  Level New York Center
17:22 39.9483 -77.2428 21° North 464 534 35,100 -240 Climbing New York Center
17:23 40.0725 -77.1867 19° North 464 534 34,600 -720 Descending New York Center
17:24 40.1861 -77.1264 22° Northeast 456 525 33,700 -960 Descending New York Center
17:25 40.3058 -77.0719 19° North 456 525 32,700 -960 Descending New York Center
17:26 40.4217 -77.0117 22° Northeast 451 519 31,800 -960 Descending New York Center
17:27 40.5394 -76.9542 20° North 451 519 30,800 -1,020 Descending New York Center
17:28 40.6592 -76.8964 20° North 451 519 29,800 -960 Descending New York Center
17:29 40.7725 -76.8408 20° North 440 506 28,900 -900 Descending New York Center
17:30 40.8794 -76.7872 21° North 428 493 28,000 -900 Descending New York Center
17:31 40.9861 -76.7361 20° North 417 480 27,100 -720 Descending New York Center
17:32 41.0931 -76.6822 21° North 412 474 26,600 -720 Descending New York Center
17:33 41.1956 -76.6303 21° North 404 465 25,700 -900 Descending New York Center
17:34 41.2981 -76.5786 21° North 398 458 24,800 -1,020 Descending New York Center
17:35 41.3986 -76.5264 21° North 393 452 23,700 -900 Descending New York Center
17:36 41.5053 -76.4717 21° North 383 441 23,000 -360 Descending New York Center
17:37 41.6036 -76.4219 21° North 377 434 23,000  Level New York Center
17:38 41.7039 -76.3719 20° North 377 434 23,000 -540 Level New York Center
17:39 41.8000 -76.3217 21° North 377 434 22,000 -960 Descending New York Center
17:40 41.8992 -76.2936 12° North 372 428 21,100 -960 Descending New York Center
17:41 41.9953 -76.2822 North 355 409 20,100 -1,020 Descending New York Center
17:42 42.0919 -76.2650 North 355 409 19,100 -1,380 Descending New York Center
17:43 42.1861 -76.2533 North 350 403 17,400 -1,740 Descending New York Center
17:44 42.2803 -76.2417 North 350 403 15,700 -1,620 Descending New York Center
17:46 42.4075 -76.2183 North 327 376 13,400 -1,560 Descending Boston Center
17:47 42.4933 -76.2067 North 316 364 11,800 -1,200 Descending Boston Center
17:48 42.5792 -76.1933 North 313 360 11,000 -780 Descending Boston Center
17:49 42.6711 -76.1392 23° Northeast 304 350 10,300 -1,020 Descending Boston Center
17:49 42.7219 -76.0994 30° Northeast 283 326 9,300 -1,380 Descending Boston Center
17:50 42.7389 -76.0861 30° Northeast 287 330 8,900 -1,620 Descending Boston Center
17:51 42.7914 -76.0428 31° Northeast 276 318 7,500 -1,740 Descending Boston Center
17:51 42.8056 -76.0336 25° Northeast 278 320 7,200 -1,800 Descending Boston Center
17:52 42.8508 -75.9944 32° Northeast 270 311 5,900 -1,680 Descending Boston Center
17:52 42.8700 -75.9806 28° Northeast 275 316 5,500 -1,020 Descending Boston Center
17:53 42.9183 -75.9369 33° Northeast 256 295 4,800 -960 Descending Boston Center
17:53 42.9317 -75.9311 18° North 265 305 4,500 -840 Descending Boston Center
17:54 42.9856 -75.9056 19° North 235 270 4,000 -540 Descending Boston Center
17:54 42.9922 -75.9039 10° North 246 283 4,000 -600 Level Boston Center
17:55 43.0369 -75.8925 11° North 218 251 3,500 -840 Descending Boston Center
17:55 43.0536 -75.8856 17° North 234 269 3,200 -540 Descending Boston Center
17:56 43.0933 -75.8867 359° North 191 220 3,000 -300 Descending Boston Center
17:56 43.1025 -75.8950 326° Northwest 209 241 2,900 -360 Descending Boston Center
17:56 43.1114 -75.9331 288° West 163 188 2,700 -420 Descending Boston Center
17:57 43.1144 -75.9558 280° West 182 209 2,500 -720 Descending Boston Center
17:58 43.1111 -75.9972 264° West 134 154 1,900 -720 Descending Boston Center
17:58 43.1142 -76.0078 292° West 159 183 1,800 -720 Descending Boston Center
17:59 43.1094 -76.0464 261° West 121 139 1,200 -720 Descending Boston Center
17:59 43.1117 -76.0550 289° West 142 163 1,100 -600 Descending Boston Center
18:00 43.1089 -76.1111 266° West 129 148 400 -720 Descending Boston Center
18:02 43.1112 -76.1063 57° Northeast  Level Estimated
18:09 43.1112 -76.1063 North  Level Estimated
18:10 43.1112 -76.1063 North  Level Estimated